createdAt,value
2023-02-09T00:04:13.593Z,-3.21
2023-02-09T00:09:16.719Z,-3.24
2023-02-09T00:14:22.219Z,-3.21
2023-02-09T00:19:25.130Z,-3.15
2023-02-09T00:24:27.901Z,-3.11
2023-02-09T00:29:30.769Z,-3.09
2023-02-09T00:34:33.666Z,-3.07
2023-02-09T00:39:36.479Z,-3.03
2023-02-09T00:44:40.584Z,-2.96
2023-02-09T00:49:43.884Z,-2.88
2023-02-09T00:54:46.761Z,-2.83
2023-02-09T00:59:51.030Z,-2.81
2023-02-09T01:04:55.358Z,-2.77
2023-02-09T01:10:00.258Z,-2.73
2023-02-09T01:15:03.053Z,-2.72
2023-02-09T01:20:08.815Z,-2.72
2023-02-09T01:25:11.642Z,-2.69
2023-02-09T01:30:15.233Z,-2.66
2023-02-09T01:35:18.081Z,-2.67
2023-02-09T01:40:24.282Z,-2.70
2023-02-09T01:45:50.190Z,-2.75
2023-02-09T01:50:59.607Z,-2.81
2023-02-09T01:56:08.391Z,-2.84
2023-02-09T02:01:12.111Z,-2.88
2023-02-09T02:06:17.603Z,-2.92
2023-02-09T02:11:23.706Z,-3.00
2023-02-09T02:17:07.998Z,-3.07
2023-02-09T02:22:16.622Z,-3.07
2023-02-09T02:27:34.647Z,-3.07
2023-02-09T02:32:52.835Z,-3.11
2023-02-09T02:38:37.418Z,-3.17
2023-02-09T02:44:06.753Z,-3.21
2023-02-09T02:49:33.609Z,-3.22
2023-02-09T02:54:58.558Z,-3.23
2023-02-09T03:00:08.141Z,-3.27
2023-02-09T03:05:12.091Z,-3.31
2023-02-09T03:10:27.295Z,-3.34
2023-02-09T03:15:41.873Z,-3.37
2023-02-09T03:20:45.099Z,-3.41
2023-02-09T03:25:53.549Z,-3.45
2023-02-09T03:30:58.846Z,-3.51
2023-02-09T03:36:03.091Z,-3.58
2023-02-09T03:41:07.967Z,-3.58
2023-02-09T03:46:11.122Z,-3.61
2023-02-09T03:51:14.303Z,-3.67
2023-02-09T03:56:17.059Z,-3.72
2023-02-09T04:01:19.952Z,-3.73
2023-02-09T04:06:22.842Z,-3.72
2023-02-09T04:11:26.232Z,-3.74
2023-02-09T04:16:29.131Z,-3.78
2023-02-09T04:21:32.692Z,-3.82
2023-02-09T04:26:36.986Z,-3.83
2023-02-09T04:31:39.942Z,-3.81
2023-02-09T04:36:43.099Z,-3.81
2023-02-09T04:41:45.892Z,-3.85
2023-02-09T04:46:48.710Z,-3.89
2023-02-09T04:51:51.839Z,-3.90
2023-02-09T04:57:14.744Z,-3.86
2023-02-09T05:02:17.522Z,-3.83
2023-02-09T05:07:20.495Z,-3.79
2023-02-09T05:12:23.291Z,-3.76
2023-02-09T05:17:26.049Z,-3.74
2023-02-09T05:22:29.256Z,-3.70
2023-02-09T05:27:32.171Z,-3.65
2023-02-09T05:32:35.084Z,-3.63
2023-02-09T05:37:37.914Z,-3.61
2023-02-09T05:42:41.190Z,-3.58
2023-02-09T05:47:43.969Z,-3.56
2023-02-09T05:52:46.829Z,-3.58
2023-02-09T05:57:50.077Z,-3.59
2023-02-09T06:02:52.847Z,-3.60
2023-02-09T06:07:56.150Z,-3.58
2023-02-09T06:12:58.955Z,-3.54
2023-02-09T06:18:04.333Z,-3.52
2023-02-09T06:23:07.372Z,-3.54
2023-02-09T06:28:10.234Z,-3.55
2023-02-09T06:33:13.173Z,-3.53
2023-02-09T06:38:15.973Z,-3.47
2023-02-09T06:43:18.789Z,-3.38
2023-02-09T06:48:21.722Z,-3.30
2023-02-09T06:53:39.527Z,-3.23
2023-02-09T06:58:52.836Z,-3.11
2023-02-09T07:03:59.477Z,-2.97
2023-02-09T07:09:04.909Z,-2.89
2023-02-09T07:14:09.846Z,-2.85
2023-02-09T07:19:14.237Z,-2.83
2023-02-09T07:24:20.047Z,-2.79
2023-02-09T07:29:32.956Z,-2.72
2023-02-09T07:34:36.336Z,-2.63
2023-02-09T07:39:39.754Z,-2.59
2023-02-09T07:44:44.818Z,-2.53
2023-02-09T07:49:47.689Z,-2.45
2023-02-09T07:54:51.769Z,-2.23
2023-02-09T07:59:55.452Z,-1.70
2023-02-09T08:05:00.757Z,-1.23
2023-02-09T08:10:04.802Z,-0.88
2023-02-09T08:15:08.531Z,-0.65
2023-02-09T08:20:20.657Z,-0.42
2023-02-09T08:25:25.468Z,0.14
2023-02-09T08:30:28.580Z,0.75
2023-02-09T08:35:31.798Z,1.29
2023-02-09T08:40:38.033Z,1.57
2023-02-09T08:45:42.708Z,1.92
2023-02-09T08:50:45.732Z,2.21
2023-02-09T08:55:51.932Z,2.39
2023-02-09T09:01:00.074Z,2.54
2023-02-09T09:06:08.686Z,2.82
2023-02-09T09:11:13.381Z,3.15
2023-02-09T09:16:17.771Z,3.06
2023-02-09T09:21:20.823Z,2.85
2023-02-09T09:26:30.355Z,2.61
2023-02-09T09:31:33.643Z,2.38
2023-02-09T09:36:36.586Z,2.31
2023-02-09T09:41:39.580Z,2.29
2023-02-09T09:46:47.467Z,2.33
2023-02-09T09:52:07.144Z,2.48
2023-02-09T09:57:19.616Z,2.53
2023-02-09T10:02:51.795Z,2.61
2023-02-09T10:08:12.909Z,2.62
2023-02-09T10:13:32.133Z,2.37
2023-02-09T10:18:38.267Z,2.03
2023-02-09T10:24:02.891Z,1.84
2023-02-09T10:29:25.917Z,1.84
2023-02-09T10:34:37.732Z,1.89
2023-02-09T10:39:41.091Z,1.95
2023-02-09T10:44:58.597Z,1.97
2023-02-09T10:50:23.063Z,1.80
2023-02-09T10:55:33.720Z,1.49
2023-02-09T11:01:05.779Z,1.26
2023-02-09T11:06:15.731Z,1.09
2023-02-09T11:17:46.024Z,0.82
2023-02-09T11:23:24.148Z,0.74
2023-02-09T11:28:42.315Z,0.75
2023-02-09T11:34:03.482Z,0.66
2023-02-09T11:39:17.269Z,0.43
2023-02-09T11:44:38.181Z,0.24
2023-02-09T11:49:50.972Z,0.06
2023-02-09T11:55:03.307Z,-0.08
2023-02-09T12:00:21.472Z,-0.09
2023-02-09T12:05:25.253Z,0.00
2023-02-09T12:10:47.324Z,0.14
2023-02-09T12:16:20.671Z,0.27
2023-02-09T12:21:32.572Z,0.42
2023-02-09T12:26:42.511Z,0.46
2023-02-09T12:32:03.749Z,0.49
2023-02-09T12:37:17.277Z,0.54
2023-02-09T12:42:26.813Z,0.57
2023-02-09T12:47:45.961Z,0.64
2023-02-09T12:53:23.250Z,0.76
2023-02-09T12:58:38.842Z,0.91
2023-02-09T13:04:07.316Z,1.12
2023-02-09T13:09:20.860Z,1.26
2023-02-09T13:14:24.642Z,1.37
2023-02-09T13:19:47.694Z,1.36
2023-02-09T13:25:09.136Z,1.35
2023-02-09T13:30:33.745Z,1.24
2023-02-09T13:36:07.139Z,1.09
2023-02-09T13:41:44.842Z,0.95
2023-02-09T13:47:15.758Z,0.78
2023-02-09T13:52:20.578Z,0.66
2023-02-09T13:57:32.087Z,0.61
2023-02-09T14:02:37.050Z,0.54
2023-02-09T14:07:40.018Z,0.46
2023-02-09T14:13:00.836Z,0.42
2023-02-09T14:18:03.860Z,0.42
2023-02-09T14:23:15.700Z,0.43
2023-02-09T14:28:18.598Z,0.43
2023-02-09T14:33:28.820Z,0.39
2023-02-09T14:38:42.913Z,0.33
2023-02-09T14:43:58.273Z,0.27
2023-02-09T14:49:01.214Z,0.18
2023-02-09T14:54:06.590Z,0.11
2023-02-09T14:59:17.032Z,0.01
2023-02-09T15:04:20.718Z,-0.11
2023-02-09T15:09:33.353Z,-0.24
2023-02-09T15:14:42.563Z,-0.38
2023-02-09T15:19:46.650Z,-0.49
2023-02-09T15:24:52.789Z,-0.61
2023-02-09T15:29:59.749Z,-0.71
2023-02-09T15:35:03.392Z,-0.79
2023-02-09T15:40:15.058Z,-0.87
2023-02-09T15:45:41.476Z,-0.94
2023-02-09T15:50:47.186Z,-0.98
2023-02-09T15:55:50.278Z,-0.98
2023-02-09T16:00:53.089Z,-0.96
2023-02-09T16:06:00.724Z,-0.97
2023-02-09T16:11:09.933Z,-1.01
2023-02-09T16:16:17.208Z,-1.05
2023-02-09T16:21:33.546Z,-1.10
2023-02-09T16:26:37.167Z,-1.15
2023-02-09T16:31:41.473Z,-1.17
2023-02-09T16:36:45.306Z,-1.17
2023-02-09T16:41:53.194Z,-1.16
2023-02-09T16:46:57.532Z,-1.16
2023-02-09T16:52:12.815Z,-1.18
2023-02-09T16:57:19.448Z,-1.22
2023-02-09T17:02:49.071Z,-1.26
2023-02-09T17:08:07.942Z,-1.28
2023-02-09T17:13:11.754Z,-1.30
2023-02-09T17:18:18.716Z,-1.28
2023-02-09T17:23:24.602Z,-1.24
2023-02-09T17:28:28.394Z,-1.25
2023-02-09T17:33:35.302Z,-1.28
2023-02-09T17:38:41.073Z,-1.33
2023-02-09T17:43:44.637Z,-1.39
2023-02-09T17:48:48.475Z,-1.38
2023-02-09T17:53:51.622Z,-1.36
2023-02-09T17:58:54.843Z,-1.32
2023-02-09T18:04:00.519Z,-1.31
2023-02-09T18:09:09.005Z,-1.31
2023-02-09T18:14:16.877Z,-1.29
2023-02-09T18:19:20.041Z,-1.28
2023-02-09T18:24:24.930Z,-1.21
2023-02-09T18:29:31.752Z,-1.14
2023-02-09T18:34:36.124Z,-1.11
2023-02-09T18:39:46.532Z,-1.12
2023-02-09T18:44:50.423Z,-1.14
2023-02-09T18:49:53.350Z,-1.13
2023-02-09T18:54:56.194Z,-1.12
2023-02-09T19:00:02.739Z,-1.13
2023-02-09T19:05:06.799Z,-1.17
2023-02-09T19:10:12.348Z,-1.23
2023-02-09T19:15:19.456Z,-1.25
2023-02-09T19:20:23.315Z,-1.23
2023-02-09T19:25:29.077Z,-1.24
2023-02-09T19:30:32.161Z,-1.25
2023-02-09T19:35:35.187Z,-1.29
2023-02-09T19:40:41.153Z,-1.32
2023-02-09T19:45:44.272Z,-1.31
2023-02-09T19:50:58.262Z,-1.31
2023-02-09T19:56:01.098Z,-1.31
2023-02-09T20:01:09.047Z,-1.34
2023-02-09T20:06:14.329Z,-1.39
2023-02-09T20:11:20.222Z,-1.43
2023-02-09T20:16:26.502Z,-1.43
2023-02-09T20:21:29.502Z,-1.39
2023-02-09T20:26:33.447Z,-1.39
2023-02-09T20:31:38.297Z,-1.40
2023-02-09T20:36:44.866Z,-1.47
2023-02-09T20:42:07.867Z,-1.50
2023-02-09T20:47:10.664Z,-1.50
2023-02-09T20:52:13.426Z,-1.51
2023-02-09T20:57:16.225Z,-1.54
2023-02-09T21:02:19.003Z,-1.57
2023-02-09T21:07:21.813Z,-1.64
2023-02-09T21:12:24.810Z,-1.70
2023-02-09T21:17:27.698Z,-1.72
2023-02-09T21:22:30.460Z,-1.74
2023-02-09T21:27:33.214Z,-1.77
2023-02-09T21:32:36.495Z,-1.81
2023-02-09T21:37:39.550Z,-1.84
2023-02-09T21:42:43.382Z,-1.83
2023-02-09T21:47:46.154Z,-1.84
2023-02-09T21:52:50.103Z,-1.87
2023-02-09T21:57:52.841Z,-1.89
2023-02-09T22:02:55.909Z,-1.96
2023-02-09T22:07:59.035Z,-2.00
2023-02-09T22:13:08.483Z,-2.02
2023-02-09T22:18:12.678Z,-2.04
2023-02-09T22:23:15.893Z,-2.07
2023-02-09T22:28:18.656Z,-2.11
2023-02-09T22:33:22.251Z,-2.17
2023-02-09T22:38:24.973Z,-2.20
2023-02-09T22:43:27.958Z,-2.19
2023-02-09T22:48:30.945Z,-2.20
2023-02-09T22:53:34.112Z,-2.22
2023-02-09T22:58:37.071Z,-2.26
2023-02-09T23:03:40.272Z,-2.31
2023-02-09T23:08:45.325Z,-2.30
2023-02-09T23:13:51.095Z,-2.27
2023-02-09T23:19:01.122Z,-2.25
2023-02-09T23:24:04.669Z,-2.28
2023-02-09T23:29:10.602Z,-2.32
2023-02-09T23:34:19.492Z,-2.35
2023-02-09T23:39:27.283Z,-2.39
2023-02-09T23:44:30.143Z,-2.41
2023-02-09T23:49:33.117Z,-2.41
2023-02-09T23:54:35.948Z,-2.43
2023-02-09T23:59:38.986Z,-2.48
